Flight Track Log - Related Links

Times and Time Zones

All times are in EDT time to prevent confusion due to time zone crossing. See the N20CJ flight status page for this flight to view local times or setup timezone preferences in your user account.

Time Position Orientation Groundspeed Altitude Reporting Facility
EDT Latitude Longitude Course Direction KTS MPH feet Rate Location/Type
Tue 10:46:05 AM 33.8167 -118.3667 320° Northwest 92 106 1,400  Level Southern California TRACON
Tue 10:47:05 AM 33.8333 -118.3833 320° Northwest 100 115 2,100 730 Climbing Southern California TRACON
Tue 10:48:00 AM 33.8167 -118.4000 220° Southwest 98 113 2,800 683 Climbing Southern California TRACON
Tue 10:49:08 AM 33.7942 -118.3783 141° Southeast 96 110 3,500 600 Climbing Los Angeles Center
Tue 10:50:10 AM 33.7728 -118.3581 142° Southeast 96 110 4,100 581 Climbing Los Angeles Center
Tue 10:51:12 AM 33.7561 -118.3311 127° Southeast 100 115 4,700 532 Climbing Los Angeles Center
Tue 10:52:14 AM 33.7619 -118.2944 79° East 108 124 5,200 194 Climbing Los Angeles Center
Tue 10:53:16 AM 33.7664 -118.2481 83° East 124 143 5,100 290 Descending Los Angeles Center
Tue 10:54:18 AM 33.7697 -118.2094 84° East 124 143 5,800 439 Climbing Los Angeles Center
Tue 10:55:19 AM 33.7739 -118.1619 84° East 118 136 6,000 98 Climbing Los Angeles Center
Tue 10:56:21 AM 33.7789 -118.1125 83° East 137 158 6,000  Level Los Angeles Center
Tue 10:57:00 AM 33.7833 -118.0833 80° East 143 165 6,000 61 Level Southern California TRACON
Tue 10:58:00 AM 33.7833 -118.0333 90° East 145 167 6,100 133 Climbing Southern California TRACON
Tue 11:00:00 AM 33.7667 -117.9333 101° East 129 148 6,400 233 Climbing Southern California TRACON
Tue 11:01:00 AM 33.7667 -117.9000 90° East 123 142 6,800 429 Climbing Southern California TRACON
Tue 11:02:06 AM 33.7333 -117.8667 140° Southeast 121 139 7,300 476 Climbing Southern California TRACON
Tue 11:03:06 AM 33.7167 -117.8333 121° Southeast 121 139 7,800 450 Climbing Southern California TRACON
Tue 11:04:06 AM 33.7167 -117.7833 90° East 124 143 8,200 400 Climbing Southern California TRACON
Tue 11:05:06 AM 33.7333 -117.7500 59° Northeast 121 139 8,600 446 Climbing Southern California TRACON
Tue 11:06:07 AM 33.7500 -117.7167 59° Northeast 117 135 9,100 300 Climbing Southern California TRACON
Tue 11:07:06 AM 33.7500 -117.6833 90° East 135 155 9,200 143 Climbing Southern California TRACON
Tue 11:08:13 AM 33.7500 -117.6333 90° East 130 150 9,400 240 Climbing Southern California TRACON
Tue 11:08:46 AM 33.7514 -117.6103 86° East 131 151 9,600 379 Climbing Los Angeles Center
Tue 11:09:48 AM 33.7486 -117.5703 95° East 123 142 10,000 339 Climbing Los Angeles Center
Tue 11:10:50 AM 33.7453 -117.5322 96° East 117 135 10,300 339 Climbing Los Angeles Center
Tue 11:11:52 AM 33.7414 -117.4953 97° East 113 130 10,700 387 Climbing Los Angeles Center
Tue 11:12:54 AM 33.7389 -117.4583 95° East 112 129 11,100 194 Climbing Los Angeles Center
Tue 11:13:56 AM 33.7344 -117.4108 96° East 118 136 11,100  Level Los Angeles Center
Tue 11:14:58 AM 33.7314 -117.3658 95° East 132 152 11,100  Level Los Angeles Center
Tue 11:16:00 AM 33.7256 -117.3225 99° East 132 152 11,100  Level Los Angeles Center
Tue 11:17:14 AM 33.7239 -117.2783 93° East 132 152 11,100  Level Los Angeles Center
Tue 11:18:17 AM 33.7189 -117.2250 96° East 134 154 11,100  Level Los Angeles Center
Tue 11:19:19 AM 33.7164 -117.1800 94° East 134 154 11,100  Level Los Angeles Center
Tue 11:20:33 AM 33.7111 -117.1264 97° East 135 155 11,100  Level Los Angeles Center
Tue 11:21:36 AM 33.7075 -117.0742 95° East 132 152 11,100  Level Los Angeles Center
Tue 11:22:38 AM 33.7042 -117.0294 95° East 134 154 11,100  Level Los Angeles Center
Tue 11:23:40 AM 33.7006 -116.9861 96° East 133 153 11,100  Level Los Angeles Center
Tue 11:24:42 AM 33.6969 -116.9422 96° East 131 151 11,100  Level Los Angeles Center
Tue 11:25:44 AM 33.6928 -116.8900 95° East 131 151 11,100 -88 Level Los Angeles Center
Tue 11:26:58 AM 33.6889 -116.8464 96° East 132 152 10,900 -88 Descending Los Angeles Center
Tue 11:28:01 AM 33.6861 -116.7931 94° East 132 152 10,900  Level Los Angeles Center
Tue 11:29:03 AM 33.6817 -116.7511 97° East 131 151 10,900  Level Los Angeles Center
Tue 11:30:05 AM 33.6786 -116.7075 95° East 130 150 10,900  Level Los Angeles Center
Tue 11:31:07 AM 33.6756 -116.6633 95° East 131 151 10,900  Level Los Angeles Center
Tue 11:32:09 AM 33.6706 -116.6108 97° East 131 151 10,900  Level Los Angeles Center
Tue 11:33:11 AM 33.6669 -116.5672 96° East 132 152 10,900  Level Los Angeles Center
Tue 11:34:14 AM 33.6625 -116.5244 97° East 131 151 10,900  Level Los Angeles Center
Tue 11:35:15 AM 33.6594 -116.4900 96° East 130 150 10,900  Level Los Angeles Center
Tue 11:36:18 AM 33.6553 -116.4383 96° East 130 150 10,900  Level Los Angeles Center
Tue 11:37:20 AM 33.6514 -116.3947 96° East 130 150 10,900  Level Los Angeles Center
Tue 11:38:34 AM 33.6475 -116.3436 95° East 130 150 10,900  Level Los Angeles Center
Tue 11:39:49 AM 33.6433 -116.2917 95° East 130 150 10,900 -44 Level Los Angeles Center
Tue 11:40:51 AM 33.6378 -116.2392 97° East 130 150 10,800 -97 Descending Los Angeles Center
Tue 11:41:53 AM 33.6344 -116.2003 96° East 136 157 10,700 -144 Descending Los Angeles Center
Tue 11:42:56 AM 33.6283 -116.1425 97° East 144 166 10,500 -175 Descending Los Angeles Center
Tue 11:44:10 AM 33.6292 -116.0842 89° East 146 168 10,300 -176 Descending Los Angeles Center
Tue 11:45:12 AM 33.6281 -116.0269 91° East 144 166 10,100 -145 Descending Los Angeles Center
Tue 11:46:14 AM 33.6269 -115.9775 92° East 145 167 10,000 -145 Descending Los Angeles Center
Tue 11:47:16 AM 33.6253 -115.9286 92° East 147 169 9,800 -192 Descending Los Angeles Center
Tue 11:48:19 AM 33.6256 -115.8797 90° East 147 169 9,600 -288 Descending Los Angeles Center
Tue 11:49:21 AM 33.6242 -115.8275 92° East 151 174 9,200 -290 Descending Los Angeles Center
Tue 11:50:23 AM 33.6228 -115.7658 92° East 154 177 9,000 -97 Descending Los Angeles Center
Tue 11:51:25 AM 33.6225 -115.7164 90° East 149 171 9,000  Level Los Angeles Center
Tue 11:52:27 AM 33.6211 -115.6683 92° East 145 167 9,000  Level Los Angeles Center
Tue 11:53:41 AM 33.6200 -115.6203 92° East 145 167 9,000 44 Level Los Angeles Center
Tue 11:54:44 AM 33.6189 -115.5619 91° East 145 167 9,100 48 Climbing Los Angeles Center
Tue 11:55:46 AM 33.6172 -115.5039 92° East 146 168 9,100  Level Los Angeles Center
Tue 11:56:48 AM 33.6153 -115.4550 93° East 146 168 9,100  Level Los Angeles Center
Tue 11:57:50 AM 33.6156 -115.4067 90° East 146 168 9,100  Level Los Angeles Center
Tue 11:59:04 AM 33.6147 -115.3569 91° East 148 170 9,100  Level Los Angeles Center
Tue 12:00:07 PM 33.6131 -115.2978 92° East 148 170 9,100  Level Los Angeles Center
Tue 12:01:21 PM 33.6108 -115.2486 93° East 147 169 9,100  Level Los Angeles Center
Tue 12:02:23 PM 33.6100 -115.1897 91° East 148 170 9,100  Level Los Angeles Center
Tue 12:03:25 PM 33.6075 -115.1306 93° East 148 170 9,100  Level Los Angeles Center
Tue 12:04:28 PM 33.6069 -115.0817 91° East 148 170 9,100  Level Los Angeles Center
Tue 12:05:30 PM 33.6058 -115.0336 92° East 146 168 9,100  Level Los Angeles Center
Tue 12:06:44 PM 33.6047 -114.9844 92° East 146 168 9,100  Level Los Angeles Center
Tue 12:07:46 PM 33.6025 -114.9164 92° East 146 168 9,100  Level Los Angeles Center
Tue 12:08:48 PM 33.6011 -114.8692 92° East 144 166 9,100  Level Los Angeles Center
Tue 12:10:03 PM 33.5994 -114.8250 93° East 142 163 9,100  Level Los Angeles Center
Tue 12:11:05 PM 33.5975 -114.7653 92° East 144 166 9,100  Level Los Angeles Center
Tue 12:12:07 PM 33.5947 -114.7183 94° East 142 163 9,100  Level Los Angeles Center
Tue 12:13:09 PM 33.5917 -114.6708 94° East 142 163 9,100  Level Los Angeles Center
Tue 12:14:23 PM 33.5872 -114.6131 95° East 144 166 9,100  Level Los Angeles Center
Tue 12:15:26 PM 33.5836 -114.5550 94° East 146 168 9,100  Level Los Angeles Center
Tue 12:16:28 PM 33.5817 -114.5081 93° East 142 163 9,100  Level Los Angeles Center
Tue 12:17:30 PM 33.5772 -114.4594 96° East 144 166 9,100  Level Los Angeles Center
Tue 12:18:32 PM 33.5744 -114.4103 94° East 145 167 9,100  Level Los Angeles Center
Tue 12:19:22 PM 33.5717 -114.3639 94° East 146 168 9,100  Level Albuquerque Center
Tue 12:20:24 PM 33.5694 -114.3178 93° East 141 162 9,100  Level Albuquerque Center
Tue 12:21:26 PM 33.5664 -114.2694 94° East 143 165 9,100  Level Albuquerque Center
Tue 12:22:28 PM 33.5628 -114.2244 95° East 139 160 9,100  Level Albuquerque Center
Tue 12:23:30 PM 33.5603 -114.1761 94° East 142 163 9,100  Level Albuquerque Center
Tue 12:24:32 PM 33.5569 -114.1294 95° East 141 162 9,100  Level Albuquerque Center
Tue 12:25:34 PM 33.5522 -114.0714 96° East 145 167 9,100  Level Albuquerque Center
Tue 12:26:36 PM 33.5489 -114.0244 95° East 143 165 9,100  Level Albuquerque Center
Tue 12:27:38 PM 33.5450 -113.9764 96° East 144 166 9,100  Level Albuquerque Center
Tue 12:28:40 PM 33.5397 -113.9289 98° East 144 166 9,100  Level Albuquerque Center
Tue 12:29:42 PM 33.5181 -113.8900 124° Southeast 141 162 9,100  Level Albuquerque Center
Tue 12:30:44 PM 33.5000 -113.8475 117° Southeast 142 163 9,100  Level Albuquerque Center
Tue 12:31:46 PM 33.4769 -113.7975 119° Southeast 142 163 9,100  Level Albuquerque Center
Tue 12:32:48 PM 33.4578 -113.7564 119° Southeast 142 163 9,100  Level Albuquerque Center
Tue 12:33:50 PM 33.4386 -113.7136 118° Southeast 144 166 9,100  Level Albuquerque Center
Tue 12:34:52 PM 33.4200 -113.6722 118° Southeast 143 165 9,100  Level Albuquerque Center
Tue 12:35:54 PM 33.4008 -113.6289 118° Southeast 146 168 9,100  Level Albuquerque Center
Tue 12:36:56 PM 33.3803 -113.5842 119° Southeast 150 173 9,100  Level Albuquerque Center
Tue 12:37:58 PM 33.3564 -113.5314 118° Southeast 151 174 9,100  Level Albuquerque Center
Tue 12:39:00 PM 33.3369 -113.4889 119° Southeast 148 170 9,100  Level Albuquerque Center
Tue 12:40:02 PM 33.3158 -113.4456 120° Southeast 149 171 9,100  Level Albuquerque Center
Tue 12:41:04 PM 33.2961 -113.4014 118° Southeast 150 173 9,100  Level Albuquerque Center
Tue 12:42:06 PM 33.2764 -113.3572 118° Southeast 150 173 9,100  Level Albuquerque Center
Tue 12:43:08 PM 33.2564 -113.3150 120° Southeast 149 171 9,100  Level Albuquerque Center
Tue 12:44:10 PM 33.2322 -113.2636 119° Southeast 148 170 9,100  Level Albuquerque Center
Tue 12:45:12 PM 33.2133 -113.2200 117° Southeast 147 169 9,100 48 Level Albuquerque Center
Tue 12:46:14 PM 33.1931 -113.1778 120° Southeast 146 168 9,200 48 Climbing Albuquerque Center
Tue 12:47:16 PM 33.1733 -113.1364 120° Southeast 145 167 9,200  Level Albuquerque Center
Tue 12:48:18 PM 33.1542 -113.0936 118° Southeast 145 167 9,200 -97 Level Albuquerque Center
Tue 12:49:20 PM 33.1347 -113.0517 119° Southeast 144 166 9,000 -97 Descending Albuquerque Center
Tue 12:50:22 PM 33.1106 -112.9986 119° Southeast 149 171 9,000  Level Albuquerque Center
Tue 12:51:24 PM 33.0906 -112.9567 120° Southeast 148 170 9,000  Level Albuquerque Center
Tue 12:52:26 PM 33.0733 -112.9197 119° Southeast 135 155 9,000  Level Albuquerque Center
Tue 12:53:23 PM 33.0519 -112.8800 123° Southeast 140 161 9,000  Level Albuquerque Center
Tue 12:54:30 PM 33.0356 -112.8378 115° Southeast 138 159 9,000  Level Albuquerque Center
Tue 12:55:25 PM 33.0142 -112.7983 123° Southeast 137 158 9,000  Level Albuquerque Center
Tue 12:56:31 PM 32.9933 -112.7528 119° Southeast 143 165 9,000  Level Albuquerque Center
Tue 12:57:32 PM 32.9756 -112.7117 117° Southeast 146 168 9,000  Level Albuquerque Center
Tue 12:58:38 PM 32.9550 -112.6639 117° Southeast 145 167 9,000  Level Albuquerque Center
Tue 12:59:39 PM 32.9319 -112.6214 123° Southeast 146 168 9,000  Level Albuquerque Center
Tue 01:00:42 PM 32.9150 -112.5800 116° Southeast 146 168 9,000  Level Albuquerque Center
Tue 01:01:53 PM 32.8878 -112.5289 122° Southeast 143 165 9,000  Level Albuquerque Center
Tue 01:02:46 PM 32.8747 -112.4986 117° Southeast 141 162 9,000  Level Albuquerque Center
Tue 01:03:48 PM 32.8525 -112.4489 118° Southeast 141 162 9,000  Level Albuquerque Center
Tue 01:04:50 PM 32.8325 -112.4092 121° Southeast 141 162 9,000  Level Albuquerque Center
Tue 01:05:52 PM 32.8133 -112.3689 120° Southeast 141 162 9,000  Level Albuquerque Center
Tue 01:06:54 PM 32.7944 -112.3292 119° Southeast 140 161 9,000  Level Albuquerque Center
Tue 01:07:56 PM 32.7744 -112.2886 120° Southeast 140 161 9,000  Level Albuquerque Center
Tue 01:08:58 PM 32.7550 -112.2494 121° Southeast 139 160 9,000  Level Albuquerque Center
Tue 01:10:00 PM 32.7331 -112.2033 119° Southeast 137 158 9,000  Level Albuquerque Center
Tue 01:11:02 PM 32.7153 -112.1636 118° Southeast 138 159 9,000  Level Albuquerque Center
Tue 01:12:04 PM 32.6956 -112.1250 121° Southeast 137 158 9,000  Level Albuquerque Center
Tue 01:13:06 PM 32.6772 -112.0867 120° Southeast 136 157 9,000  Level Albuquerque Center
Tue 01:14:08 PM 32.6575 -112.0467 120° Southeast 139 160 9,000  Level Albuquerque Center
Tue 01:15:10 PM 32.6383 -112.0072 120° Southeast 139 160 9,000 48 Level Albuquerque Center
Tue 01:16:12 PM 32.6153 -111.9600 120° Southeast 139 160 9,100 48 Climbing Albuquerque Center
Tue 01:17:14 PM 32.5958 -111.9197 120° Southeast 140 161 9,100  Level Albuquerque Center
Tue 01:18:16 PM 32.5764 -111.8792 120° Southeast 141 162 9,100  Level Albuquerque Center
Tue 01:19:18 PM 32.5567 -111.8381 120° Southeast 143 165 9,100  Level Albuquerque Center
Tue 01:20:20 PM 32.5369 -111.7983 120° Southeast 142 163 9,100  Level Albuquerque Center
Tue 01:21:22 PM 32.5169 -111.7592 121° Southeast 140 161 9,100  Level Albuquerque Center
Tue 01:22:24 PM 32.4953 -111.7106 118° Southeast 138 159 9,100  Level Albuquerque Center
Tue 01:23:25 PM 32.4739 -111.6731 124° Southeast 138 159 9,100  Level Albuquerque Center
Tue 01:24:27 PM 32.4556 -111.6350 120° Southeast 135 155 9,100  Level Albuquerque Center
Tue 01:25:29 PM 32.4381 -111.5956 118° Southeast 135 155 9,100  Level Albuquerque Center
Tue 01:26:31 PM 32.4186 -111.5575 121° Southeast 136 157 9,100 154 Level Albuquerque Center
Tue 01:27:26 PM 32.3986 -111.5208 123° Southeast 127 146 9,400 365 Climbing Albuquerque Center
Tue 01:28:26 PM 32.3819 -111.4900 123° Southeast 115 132 9,800 347 Climbing Albuquerque Center
Tue 01:29:27 PM 32.3656 -111.4592 122° Southeast 111 128 10,100 295 Climbing Albuquerque Center
Tue 01:30:28 PM 32.3514 -111.4300 120° Southeast 107 123 10,400 316 Climbing Albuquerque Center
Tue 01:31:40 PM 32.3381 -111.3947 114° Southeast 104 120 10,800 271 Climbing Albuquerque Center
Tue 01:32:41 PM 32.3197 -111.3653 126° Southeast 102 117 11,000 155 Climbing Albuquerque Center
Tue 01:33:36 PM 32.3081 -111.3383 117° Southeast 101 116 11,100  Climbing Albuquerque Center
Tue 01:34:46 PM 32.2933 -111.3036 117° Southeast 100 115 11,000 -50 Descending Albuquerque Center
Tue 01:35:37 PM 32.2803 -111.2828 127° Southeast 99 114 11,000 -170 Level Albuquerque Center
Tue 01:36:32 PM 32.2669 -111.2586 123° Southeast 95 109 10,700 -574 Descending Albuquerque Center
Tue 01:37:32 PM 32.2528 -111.2294 120° Southeast 100 115 9,900 -783 Descending Albuquerque Center
Tue 01:38:27 PM 32.2417 -111.2047 118° Southeast 93 107 9,200 -672 Descending Albuquerque Center
Tue 01:39:28 PM 32.2283 -111.1806 123° Southeast 92 106 8,600 -645 Descending Albuquerque Center
Tue 01:40:28 PM 32.2167 -111.1536 117° Southeast 91 105 7,900 -645 Descending Albuquerque Center
Tue 01:41:29 PM 32.2025 -111.1247 120° Southeast 100 115 7,300 -639 Descending Albuquerque Center
Tue 01:42:30 PM 32.1864 -111.0961 124° Southeast 106 122 6,600 -694 Descending Albuquerque Center
Tue 01:43:30 PM 32.1692 -111.0631 122° Southeast 115 132 5,900 -545 Descending Albuquerque Center
Tue 01:44:31 PM 32.1539 -111.0294 118° Southeast 113 130 5,500 -188 Descending Albuquerque Center
Tue 01:45:38 PM 32.1367 -110.9964 122° Southeast 112 129 5,500  Level Albuquerque Center
Tue 01:46:38 PM 32.1219 -110.9650 119° Southeast 114 131 5,500  Level Albuquerque Center
Tue 01:47:39 PM 32.1044 -110.9294 120° Southeast 115 132 5,500  Level Albuquerque Center
Tue 01:48:40 PM 32.0789 -110.9086 145° Southeast 115 132 5,500  Level Albuquerque Center
Tue 01:49:40 PM 32.0489 -110.9092 181° South 114 131 5,500  Level Albuquerque Center
Tue 01:50:35 PM 32.0186 -110.9075 177° South 116 133 5,500  Level Albuquerque Center
Tue 01:51:36 PM 31.9878 -110.9033 173° South 113 130 5,500  Level Albuquerque Center
Tue 01:52:37 PM 31.9575 -110.9014 177° South 113 130 5,500  Level Albuquerque Center
Tue 01:53:43 PM 31.9222 -110.8958 172° South 114 131 5,500  Level Albuquerque Center
Tue 01:54:44 PM 31.8872 -110.8928 176° South 118 136 5,500  Level Albuquerque Center
Tue 01:55:45 PM 31.8547 -110.8914 178° South 116 133 5,500  Level Albuquerque Center
Tue 01:56:46 PM 31.8239 -110.8872 173° South 114 131 5,500  Level Albuquerque Center
Tue 01:57:46 PM 31.7914 -110.8961 193° South 129 148 5,500  Level Albuquerque Center
Tue 01:58:47 PM 31.7636 -110.9186 215° Southwest 130 150 5,500 98 Level Albuquerque Center
Tue 01:59:48 PM 31.7394 -110.9478 226° Southwest 124 143 5,700 443 Climbing Albuquerque Center
Tue 02:00:49 PM 31.7042 -110.9647 202° Southwest 133 153 6,400 393 Climbing Albuquerque Center
Tue 02:01:50 PM 31.6683 -110.9669 183° South 136 157 6,500 50 Climbing Albuquerque Center
Tue 02:02:50 PM 31.6350 -110.9608 171° South 125 144 6,500  Level Albuquerque Center
Tue 02:03:51 PM 31.6017 -110.9547 171° South 118 136 6,500  Level Albuquerque Center
Tue 02:04:52 PM 31.5708 -110.9506 173° South 120 138 6,500  Level Albuquerque Center
Tue 02:05:53 PM 31.5414 -110.9433 168° South 114 131 6,500  Level Albuquerque Center
Tue 02:06:53 PM 31.5344 -110.9403 159° South 114 131 6,500  Level Albuquerque Center
Tue 02:08:06 PM 31.4800 -110.9350 175° South 112 129 6,500  Level Albuquerque Center
Tue 02:08:49 PM 31.4733 -110.9342 174° South 112 129 6,500  Level Albuquerque Center
Tue 02:10:00 PM 31.4693 -110.8833 95° East  Level FlightAware Approximate
Tue 02:17:00 PM 31.2616 -110.9398 207° Southwest  Level FlightAware Approximate
Tue 02:18:00 PM 31.2288 -110.9594 207° Southwest  Level FlightAware Approximate
Tue 02:19:00 PM 31.2167 -110.9667 207° Southwest  Level FlightAware Approximate
Tue 02:20:00 PM 31.2167 -110.9667 207° Southwest  Level FlightAware Approximate
Tue 02:21:00 PM 31.2167 -110.9667 207° Southwest  Level FlightAware Approximate
Tue 02:22:00 PM 31.2167 -110.9667 207° Southwest  Level FlightAware Approximate
Tue 02:23:00 PM 31.2167 -110.9667 207° Southwest  Level FlightAware Approximate
Tue 02:24:00 PM 31.2167 -110.9667 207° Southwest  Level FlightAware Approximate
Tue 02:25:00 PM 31.2167 -110.9667 207° Southwest  Level FlightAware Approximate
Tue 02:26:00 PM 31.2167 -110.9667 207° Southwest  Level FlightAware Approximate
Tue 02:27:00 PM 31.2167 -110.9667 207° Southwest  Level FlightAware Approximate
Tue 02:28:00 PM 31.2167 -110.9667 207° Southwest  Level FlightAware Approximate
Tue 02:29:00 PM 31.2167 -110.9667 207° Southwest  Level FlightAware Approximate
Tue 02:30:00 PM 31.2167 -110.9667 207° Southwest  Level FlightAware Approximate
Tue 02:31:00 PM 31.2167 -110.9667 207° Southwest  Level FlightAware Approximate
Tue 02:32:00 PM 31.2167 -110.9667 207° Southwest  Level FlightAware Approximate
Tue 02:33:00 PM 31.2167 -110.9667 207° Southwest  Level FlightAware Approximate

Login

Don't have an account? Register now (free) for customized features, flight alerts, and more!